Sandborn, Indiana
Current Conditions -  °F | °C
As of 4:55 PM on Friday 28 Nov 2014 (Local Time) from KDCY Reporting Station
Clear Clear  
Wind Chill: 29°   Ceiling: Unl
Heat Index: 37°   Visibility: 10mi
Dew Point: 28°   Wind: 12mph
Humidity: 71%   Direction: 160°SSE
Pressure: 30.1"   Gusts: NA
Location:  38.9°N, 87.19°W
Report Text: KDCY 282255Z AUTO 16010KT 10SM CLR 03/M02 A3010 RMK AO2 T00271020
Loading
Personal Weather Stations






























Interactive Weather Map New forecast layout! Learn more

10-Day Weather Forecast

Advertisements
Track Severe Weather on mobile